createdAt,value
2023-05-06T00:00:42.862Z,16.73
2023-05-06T00:10:46.673Z,16.72
2023-05-06T00:20:49.055Z,16.48
2023-05-06T00:30:52.873Z,16.55
2023-05-06T00:40:55.261Z,16.60
2023-05-06T00:50:59.015Z,16.53
2023-05-06T01:01:01.746Z,16.58
2023-05-06T01:11:08.510Z,16.50
2023-05-06T01:21:12.585Z,16.37
2023-05-06T01:31:21.018Z,16.23
2023-05-06T01:41:24.255Z,16.04
2023-05-06T01:51:28.107Z,16.05
2023-05-06T02:01:30.533Z,16.06
2023-05-06T02:11:34.275Z,16.08
2023-05-06T02:21:36.807Z,15.91
2023-05-06T02:31:40.624Z,16.04
2023-05-06T02:41:43.036Z,16.08
2023-05-06T02:51:47.103Z,15.92
2023-05-06T03:01:49.496Z,15.74
2023-05-06T03:11:53.230Z,15.60
2023-05-06T03:21:55.606Z,15.51
2023-05-06T03:31:59.458Z,15.35
2023-05-06T03:42:02.283Z,15.27
2023-05-06T03:52:06.266Z,15.20
2023-05-06T04:02:08.679Z,15.13
2023-05-06T04:12:12.501Z,14.87
2023-05-06T04:22:15.004Z,15.00
2023-05-06T04:32:18.928Z,14.83
2023-05-06T04:42:21.334Z,14.79
2023-05-06T04:52:25.057Z,14.90
2023-05-06T05:02:27.935Z,14.78
2023-05-06T05:12:32.048Z,14.90
2023-05-06T05:22:34.479Z,14.52
2023-05-06T05:32:38.240Z,14.84
2023-05-06T05:42:40.852Z,14.96
2023-05-06T05:52:44.576Z,14.87
2023-05-06T06:02:47.053Z,14.84
2023-05-06T06:12:50.858Z,14.91
2023-05-06T06:22:53.249Z,15.11
2023-05-06T06:32:58.771Z,15.25
2023-05-06T06:43:01.271Z,15.45
2023-05-06T06:53:06.396Z,15.54
2023-05-06T07:03:09.081Z,15.58
2023-05-06T07:13:12.850Z,15.78
2023-05-06T07:23:15.468Z,15.71
2023-05-06T07:33:19.311Z,15.83
2023-05-06T07:43:22.910Z,16.12
2023-05-06T07:53:27.018Z,16.26
2023-05-06T08:03:30.922Z,16.53
2023-05-06T08:13:34.768Z,16.39
2023-05-06T08:23:37.156Z,16.57
2023-05-06T08:33:40.850Z,16.45
2023-05-06T08:43:44.078Z,16.55
2023-05-06T08:53:49.381Z,17.03
2023-05-06T09:03:52.335Z,17.21
2023-05-06T09:14:09.112Z,17.28
2023-05-06T09:24:12.390Z,17.70
2023-05-06T09:34:17.481Z,18.03
2023-05-06T09:44:20.154Z,18.21
2023-05-06T09:54:24.705Z,18.26
2023-05-06T10:04:27.976Z,18.39
2023-05-06T10:14:31.953Z,18.47
2023-05-06T10:24:37.820Z,18.43
2023-05-06T10:34:45.318Z,18.47
2023-05-06T10:44:57.142Z,19.00
2023-05-06T10:55:00.873Z,19.52
2023-05-06T11:05:03.437Z,19.91
2023-05-06T11:15:20.818Z,20.17
2023-05-06T11:25:43.557Z,20.65
2023-05-06T11:35:46.445Z,21.05
2023-05-06T11:45:50.650Z,21.25
2023-05-06T11:55:54.008Z,22.09
2023-05-06T12:05:58.246Z,22.07
2023-05-06T12:16:01.416Z,21.64
2023-05-06T12:26:06.566Z,22.12
2023-05-06T12:36:09.172Z,22.87
2023-05-06T12:46:13.392Z,22.88
2023-05-06T12:56:15.815Z,23.17
2023-05-06T13:06:19.814Z,23.08
2023-05-06T13:16:22.557Z,23.19
2023-05-06T13:26:26.735Z,23.84
2023-05-06T13:36:29.172Z,23.87
2023-05-06T13:46:32.933Z,23.69
2023-05-06T13:56:35.710Z,24.26
2023-05-06T14:06:39.697Z,24.52
2023-05-06T14:16:42.208Z,24.42
2023-05-06T14:26:46.098Z,24.12
2023-05-06T14:36:48.527Z,24.11
2023-05-06T14:46:52.263Z,23.74
2023-05-06T14:56:54.662Z,24.18
2023-05-06T15:06:58.475Z,24.30
2023-05-06T15:17:00.905Z,24.48
2023-05-06T15:27:04.687Z,24.05
2023-05-06T15:37:08.072Z,23.92
2023-05-06T15:47:11.831Z,23.46
2023-05-06T15:57:14.829Z,23.26
2023-05-06T16:07:18.850Z,23.03
2023-05-06T16:17:21.239Z,22.98
2023-05-06T16:27:27.414Z,22.52
2023-05-06T16:37:29.807Z,22.41
2023-05-06T16:47:33.723Z,22.17
2023-05-06T16:57:36.395Z,22.07
2023-05-06T17:07:40.170Z,21.96
2023-05-06T17:17:42.586Z,21.73
2023-05-06T17:27:46.576Z,21.53
2023-05-06T17:37:49.009Z,21.35
2023-05-06T17:47:52.835Z,21.12
2023-05-06T17:57:55.228Z,21.01
2023-05-06T18:07:59.350Z,20.73
2023-05-06T18:18:01.831Z,20.66
2023-05-06T18:28:05.785Z,20.42
2023-05-06T18:38:08.418Z,20.28
2023-05-06T18:48:12.220Z,20.05
2023-05-06T18:58:16.186Z,19.95
2023-05-06T19:08:19.977Z,19.78
2023-05-06T19:18:22.495Z,19.70
2023-05-06T19:28:26.244Z,19.37
2023-05-06T19:38:28.870Z,19.35
2023-05-06T19:48:34.834Z,19.21
2023-05-06T19:58:38.229Z,19.02
2023-05-06T20:08:41.938Z,18.83
2023-05-06T20:18:44.367Z,18.77
2023-05-06T20:28:48.109Z,18.61
2023-05-06T20:38:51.417Z,18.49
2023-05-06T20:48:55.142Z,18.36
2023-05-06T20:58:57.574Z,18.19
2023-05-06T21:09:01.304Z,18.04
2023-05-06T21:19:05.591Z,18.05
2023-05-06T21:29:09.360Z,17.96
2023-05-06T21:39:12.754Z,17.96
2023-05-06T21:49:16.588Z,17.93
2023-05-06T21:59:19.631Z,17.95
2023-05-06T22:09:23.552Z,17.83
2023-05-06T22:19:26.532Z,17.83
2023-05-06T22:29:30.343Z,17.84
2023-05-06T22:39:32.792Z,17.75
2023-05-06T22:49:36.548Z,17.72
2023-05-06T22:59:39.013Z,17.63
2023-05-06T23:09:42.829Z,17.70
2023-05-06T23:19:45.953Z,17.58
2023-05-06T23:29:49.944Z,17.35
2023-05-06T23:39:52.999Z,17.18
2023-05-06T23:49:57.765Z,17.09
